Time;durP1;ratioP1;P1;durP2;ratioP2;P2;SDS_P1;SDS_P2;PMS_P1;PMS_P2;Temp;Humidity;BMP_temperature;BMP_pressure;BME280_temperature;BME280_humidity;BME280_pressure;Samples;Min_cycle;Max_cycle;Signal;HPM_P1;HPM_P2
2022/07/24 00:02:51;;;;;;;5.80;2.85;;;;;;;;;;5091043;27;20390;-72
2022/07/24 00:05:56;;;;;;;5.30;2.92;;;;;;;;;;5111957;27;20800;-71
2022/07/24 00:10:09;;;;;;;7.45;3.80;;;;;;;;;;5111850;27;20396;-72
2022/07/24 00:12:35;;;;;;;6.82;3.40;;;;;;;;;;5111298;28;20383;-73
2022/07/24 00:15:01;;;;;;;6.43;2.97;;;;;;;;;;5111003;28;20077;-72
2022/07/24 00:21:59;;;;;;;9.18;3.85;;;;;;;;;;5111504;27;20423;-72
2022/07/24 00:24:25;;;;;;;7.68;3.35;;;;;;;;;;5127153;28;20062;-72
2022/07/24 00:28:38;;;;;;;8.23;3.70;;;;;;;;;;5111262;27;20397;-72
2022/07/24 00:31:04;;;;;;;9.73;3.15;;;;;;;;;;5111302;28;20086;-72
2022/07/24 00:33:31;;;;;;;8.05;4.00;;;;;;;;;;5109924;28;20019;-72
2022/07/24 00:35:57;;;;;;;11.82;4.07;;;;;;;;;;5111080;28;20070;-72
2022/07/24 00:38:23;;;;;;;9.35;3.60;;;;;;;;;;5111094;28;20046;-74
2022/07/24 00:41:05;;;;;;;7.28;4.80;;;;;;;;;;5111491;27;20791;-72
2022/07/24 00:43:31;;;;;;;7.63;3.67;;;;;;;;;;5110851;28;20039;-72
2022/07/24 00:45:57;;;;;;;7.05;3.22;;;;;;;;;;5111491;28;20416;-74
2022/07/24 00:48:23;;;;;;;8.30;3.65;;;;;;;;;;5110250;28;20094;-73
2022/07/24 00:50:49;;;;;;;9.52;3.38;;;;;;;;;;5109463;28;20039;-72
2022/07/24 00:53:16;;;;;;;10.95;3.97;;;;;;;;;;5111138;28;20066;-72
2022/07/24 00:55:42;;;;;;;9.02;3.13;;;;;;;;;;5111097;28;20051;-72
2022/07/24 00:58:08;;;;;;;8.05;3.63;;;;;;;;;;5110820;28;20028;-73
2022/07/24 01:00:34;;;;;;;8.00;3.33;;;;;;;;;;5110900;28;20430;-73
2022/07/24 01:03:01;;;;;;;7.68;3.85;;;;;;;;;;5110928;28;20361;-73
2022/07/24 01:05:27;;;;;;;8.65;3.67;;;;;;;;;;5110519;28;20023;-73
2022/07/24 01:08:26;;;;;;;7.18;2.85;;;;;;;;;;5111570;27;20450;-72
2022/07/24 01:10:52;;;;;;;13.70;5.40;;;;;;;;;;5110905;28;20028;-72
2022/07/24 01:13:36;;;;;;;8.82;3.75;;;;;;;;;;5111794;27;20966;-71
2022/07/24 01:16:02;;;;;;;8.98;3.67;;;;;;;;;;5111253;28;20055;-72
2022/07/24 01:18:28;;;;;;;7.50;3.75;;;;;;;;;;5110858;28;20027;-71
2022/07/24 01:20:55;;;;;;;9.95;3.25;;;;;;;;;;5111223;28;20015;-71
2022/07/24 01:23:21;;;;;;;8.35;3.50;;;;;;;;;;5111186;28;20514;-71
2022/07/24 01:25:48;;;;;;;7.45;3.97;;;;;;;;;;5110790;28;20049;-73
2022/07/24 01:28:14;;;;;;;7.80;4.53;;;;;;;;;;5110940;28;20048;-72
2022/07/24 01:30:40;;;;;;;7.22;3.78;;;;;;;;;;5110996;28;20023;-72
2022/07/24 01:33:07;;;;;;;7.88;3.33;;;;;;;;;;5110526;28;20032;-72
2022/07/24 01:35:33;;;;;;;7.65;3.63;;;;;;;;;;5110889;28;20024;-72
2022/07/24 01:37:59;;;;;;;7.07;3.42;;;;;;;;;;5110875;28;20024;-72
2022/07/24 01:40:25;;;;;;;6.60;3.10;;;;;;;;;;5110455;28;20024;-72
2022/07/24 01:43:07;;;;;;;11.00;3.80;;;;;;;;;;5112005;27;20389;-72
2022/07/24 01:45:33;;;;;;;6.55;3.13;;;;;;;;;;5111359;28;20055;-72
2022/07/24 01:47:59;;;;;;;7.50;3.60;;;;;;;;;;5110810;28;20099;-71
2022/07/24 01:50:26;;;;;;;9.82;3.55;;;;;;;;;;5111130;28;20036;-71
2022/07/24 01:52:53;;;;;;;8.68;3.80;;;;;;;;;;5111257;28;20024;-71
2022/07/24 01:55:19;;;;;;;6.05;3.35;;;;;;;;;;5109421;28;20115;-72
2022/07/24 02:00:14;;;;;;;8.50;4.40;;;;;;;;;;5111629;27;20388;-71
2022/07/24 02:04:49;;;;;;;13.07;4.30;;;;;;;;;;5111726;27;20480;-72
2022/07/24 02:07:15;;;;;;;13.73;4.55;;;;;;;;;;5110857;28;20024;-72
2022/07/24 02:11:46;;;;;;;9.65;4.18;;;;;;;;;;5111384;27;20396;-72
2022/07/24 02:14:12;;;;;;;8.75;3.72;;;;;;;;;;5110812;28;20403;-72
2022/07/24 02:16:38;;;;;;;9.35;3.95;;;;;;;;;;5111171;28;20020;-72
2022/07/24 02:19:04;;;;;;;7.57;4.63;;;;;;;;;;5111173;28;20050;-72
2022/07/24 02:22:42;;;;;;;8.65;4.53;;;;;;;;;;5111103;27;20389;-72
2022/07/24 02:25:08;;;;;;;8.57;4.20;;;;;;;;;;5111229;28;20373;-72
2022/07/24 02:27:34;;;;;;;10.73;4.13;;;;;;;;;;5109966;28;20023;-72
2022/07/24 02:30:00;;;;;;;6.85;3.35;;;;;;;;;;5109441;28;20085;-72
2022/07/24 02:35:37;;;;;;;8.18;3.75;;;;;;;;;;5111132;27;20401;-73
2022/07/24 02:39:12;;;;;;;10.55;4.30;;;;;;;;;;5112061;27;20474;-73
2022/07/24 02:41:38;;;;;;;11.45;4.47;;;;;;;;;;5111253;28;20024;-72
2022/07/24 02:44:04;;;;;;;10.00;4.40;;;;;;;;;;5109502;28;20027;-72
2022/07/24 02:46:31;;;;;;;7.10;3.97;;;;;;;;;;5111209;28;20081;-72
2022/07/24 02:50:38;;;;;;;9.27;4.05;;;;;;;;;;5111443;27;20424;-72
2022/07/24 02:53:05;;;;;;;13.38;4.30;;;;;;;;;;5127131;28;20036;-72
2022/07/24 02:55:31;;;;;;;10.60;4.10;;;;;;;;;;5111561;28;20437;-72
2022/07/24 02:59:51;;;;;;;11.95;4.28;;;;;;;;;;5111477;27;20392;-72
2022/07/24 03:02:18;;;;;;;9.18;4.32;;;;;;;;;;5111239;28;20089;-72
2022/07/24 03:04:44;;;;;;;9.60;3.65;;;;;;;;;;5110802;28;20037;-73
2022/07/24 03:08:14;;;;;;;9.80;3.60;;;;;;;;;;5132172;27;20898;-72
2022/07/24 03:12:38;;;;;;;8.45;3.75;;;;;;;;;;5111383;27;20803;-73
2022/07/24 03:17:07;;;;;;;8.60;3.63;;;;;;;;;;5111625;27;20473;-73
2022/07/24 03:19:33;;;;;;;9.88;4.63;;;;;;;;;;5110907;28;20031;-72
2022/07/24 03:24:31;;;;;;;6.43;3.63;;;;;;;;;;5071132;28;20476;-72
2022/07/24 03:26:57;;;;;;;8.80;3.90;;;;;;;;;;5071008;28;20025;-72
2022/07/24 03:29:23;;;;;;;6.65;3.30;;;;;;;;;;5052725;28;20024;-72
2022/07/24 03:31:50;;;;;;;9.32;4.10;;;;;;;;;;5070210;28;20091;-73
2022/07/24 03:34:16;;;;;;;10.43;4.20;;;;;;;;;;5071061;28;20094;-73
2022/07/24 03:36:42;;;;;;;10.10;4.47;;;;;;;;;;5052665;28;20032;-73
2022/07/24 03:41:00;;;;;;;7.63;3.80;;;;;;;;;;5111711;27;20393;-72
2022/07/24 03:43:26;;;;;;;10.70;4.63;;;;;;;;;;5111276;28;20513;-72
2022/07/24 03:45:52;;;;;;;13.02;4.13;;;;;;;;;;5109568;28;20062;-73
2022/07/24 03:48:19;;;;;;;8.05;4.28;;;;;;;;;;5111237;28;20024;-73
2022/07/24 03:50:45;;;;;;;9.02;4.78;;;;;;;;;;5109851;28;20020;-72
2022/07/24 03:53:11;;;;;;;8.90;4.70;;;;;;;;;;5109426;28;20028;-72
2022/07/24 03:59:34;;;;;;;7.50;3.97;;;;;;;;;;5111225;27;20749;-73
2022/07/24 04:02:00;;;;;;;6.30;4.00;;;;;;;;;;5110007;28;20036;-73
2022/07/24 04:04:27;;;;;;;7.07;3.65;;;;;;;;;;5111211;28;20103;-73
2022/07/24 04:09:36;;;;;;;11.20;4.57;;;;;;;;;;5112071;27;20935;-73
2022/07/24 04:12:55;;;;;;;9.80;4.45;;;;;;;;;;5112131;27;20397;-74
2022/07/24 04:15:32;;;;;;;7.65;3.88;;;;;;;;;;5111054;27;20392;-74
2022/07/24 04:18:38;;;;;;;8.10;4.43;;;;;;;;;;5111750;27;20418;-73
2022/07/24 04:21:04;;;;;;;10.30;4.47;;;;;;;;;;5110960;28;20034;-72
2022/07/24 04:24:53;;;;;;;10.65;4.72;;;;;;;;;;5112063;27;20465;-73
2022/07/24 04:27:19;;;;;;;9.07;4.43;;;;;;;;;;5111332;28;20027;-74
2022/07/24 04:30:51;;;;;;;7.75;4.78;;;;;;;;;;5111722;27;20401;-73
2022/07/24 04:33:17;;;;;;;11.50;4.30;;;;;;;;;;5111308;28;20035;-73
2022/07/24 04:35:43;;;;;;;10.40;4.32;;;;;;;;;;5109557;28;20110;-73
2022/07/24 04:38:09;;;;;;;9.20;3.67;;;;;;;;;;5111429;28;20028;-73
2022/07/24 04:40:36;;;;;;;9.60;4.57;;;;;;;;;;5111323;28;20035;-73
2022/07/24 04:43:02;;;;;;;7.47;3.78;;;;;;;;;;5110882;28;20476;-73
2022/07/24 04:45:28;;;;;;;10.07;3.60;;;;;;;;;;5109813;28;20069;-73
2022/07/24 04:47:54;;;;;;;8.00;4.03;;;;;;;;;;5110971;28;20028;-73
2022/07/24 04:50:20;;;;;;;11.65;4.20;;;;;;;;;;5109238;28;20035;-73
2022/07/24 04:52:46;;;;;;;6.80;3.88;;;;;;;;;;5111147;28;20024;-73
2022/07/24 04:55:13;;;;;;;9.00;4.63;;;;;;;;;;5110912;28;20379;-73
2022/07/24 04:57:39;;;;;;;10.25;3.67;;;;;;;;;;5110155;28;20027;-73
2022/07/24 05:01:32;;;;;;;9.95;4.72;;;;;;;;;;5112051;27;20446;-73
2022/07/24 05:03:59;;;;;;;7.90;3.67;;;;;;;;;;5111014;28;20047;-72
2022/07/24 05:06:25;;;;;;;13.10;4.57;;;;;;;;;;5109961;28;20077;-72
2022/07/24 05:10:35;;;;;;;10.48;4.65;;;;;;;;;;5173224;27;20736;-72
2022/07/24 05:13:01;;;;;;;10.57;4.93;;;;;;;;;;5134011;27;20034;-72
2022/07/24 05:15:27;;;;;;;9.55;4.10;;;;;;;;;;5152362;27;20532;-73
2022/07/24 05:17:53;;;;;;;11.38;4.50;;;;;;;;;;5133449;27;20531;-72
2022/07/24 05:20:19;;;;;;;9.23;3.80;;;;;;;;;;5152318;27;20019;-72
2022/07/24 05:22:45;;;;;;;9.23;4.35;;;;;;;;;;5152570;27;20455;-73
2022/07/24 05:25:11;;;;;;;9.98;4.38;;;;;;;;;;5151899;27;20561;-72
2022/07/24 05:27:38;;;;;;;8.02;4.10;;;;;;;;;;5133692;27;20019;-73
2022/07/24 05:30:05;;;;;;;9.65;4.28;;;;;;;;;;5133614;27;20058;-73
2022/07/24 05:32:31;;;;;;;11.80;4.63;;;;;;;;;;5151697;27;20019;-73
2022/07/24 05:34:57;;;;;;;8.75;4.22;;;;;;;;;;5133545;27;20226;-73
2022/07/24 05:37:23;;;;;;;10.32;4.07;;;;;;;;;;5133463;27;20054;-73
2022/07/24 05:43:30;;;;;;;14.43;4.57;;;;;;;;;;5112011;27;20412;-73
2022/07/24 05:45:57;;;;;;;11.30;4.15;;;;;;;;;;5126725;28;20119;-72
2022/07/24 05:48:23;;;;;;;7.53;3.38;;;;;;;;;;5111212;28;20073;-72
2022/07/24 05:52:45;;;;;;;7.60;3.63;;;;;;;;;;5111443;27;20416;-72
2022/07/24 05:56:35;;;;;;;12.25;4.72;;;;;;;;;;5111748;27;20462;-72
2022/07/24 05:59:38;;;;;;;10.52;4.60;;;;;;;;;;5111227;27;20461;-73
2022/07/24 06:02:04;;;;;;;9.07;4.75;;;;;;;;;;5109969;28;20027;-72
2022/07/24 06:06:11;;;;;;;12.18;4.95;;;;;;;;;;5111086;27;20481;-73
2022/07/24 06:08:37;;;;;;;11.52;4.32;;;;;;;;;;5127079;28;20027;-72
2022/07/24 06:11:03;;;;;;;9.85;4.75;;;;;;;;;;5126994;28;20020;-72
2022/07/24 06:13:29;;;;;;;11.32;4.72;;;;;;;;;;5110865;28;20445;-73
2022/07/24 06:15:56;;;;;;;11.70;4.55;;;;;;;;;;5126983;28;20424;-73
2022/07/24 06:20:29;;;;;;;8.90;4.75;;;;;;;;;;5070367;28;20415;-74
2022/07/24 06:25:14;;;;;;;11.70;5.32;;;;;;;;;;5112052;27;20835;-73
2022/07/24 06:27:44;;;;;;;12.48;6.22;;;;;;;;;;5109667;28;20397;-74
2022/07/24 06:30:14;;;;;;;13.57;5.00;;;;;;;;;;5110000;28;20097;-74
2022/07/24 06:32:41;;;;;;;10.02;4.80;;;;;;;;;;5111424;28;20095;-74
2022/07/24 06:35:57;;;;;;;6.78;3.85;;;;;;;;;;5111394;27;20388;-73
2022/07/24 06:38:23;;;;;;;9.23;4.55;;;;;;;;;;5111447;28;20020;-73
2022/07/24 06:40:49;;;;;;;10.70;5.35;;;;;;;;;;5111209;28;20028;-73
2022/07/24 06:43:34;;;;;;;11.52;5.00;;;;;;;;;;5110968;27;20420;-73
2022/07/24 06:46:18;;;;;;;12.77;4.70;;;;;;;;;;5070774;28;20772;-73
2022/07/24 06:48:44;;;;;;;10.07;4.75;;;;;;;;;;5070381;28;20036;-73
2022/07/24 06:51:10;;;;;;;9.40;5.40;;;;;;;;;;5069301;28;20024;-73
2022/07/24 06:53:37;;;;;;;11.48;4.60;;;;;;;;;;5070488;28;20021;-73
2022/07/24 06:56:03;;;;;;;10.32;5.07;;;;;;;;;;5070652;28;20025;-73
2022/07/24 07:00:02;;;;;;;10.00;4.70;;;;;;;;;;5111522;27;20396;-73
2022/07/24 07:02:28;;;;;;;10.48;4.55;;;;;;;;;;5111368;28;20030;-73
2022/07/24 07:04:54;;;;;;;9.10;4.80;;;;;;;;;;5110593;28;20037;-73
2022/07/24 07:07:20;;;;;;;14.02;5.70;;;;;;;;;;5111200;28;20027;-73
2022/07/24 07:09:46;;;;;;;10.45;4.43;;;;;;;;;;5109337;28;20480;-73
2022/07/24 07:12:12;;;;;;;10.32;5.18;;;;;;;;;;5111064;28;20042;-73
2022/07/24 07:14:39;;;;;;;11.45;4.57;;;;;;;;;;5111036;28;20020;-73
2022/07/24 07:17:05;;;;;;;10.13;4.90;;;;;;;;;;5110620;28;20051;-73
2022/07/24 07:19:31;;;;;;;11.88;5.07;;;;;;;;;;5110901;28;20400;-72
2022/07/24 07:21:58;;;;;;;10.77;5.60;;;;;;;;;;5109690;28;20020;-73
2022/07/24 07:24:24;;;;;;;9.88;5.53;;;;;;;;;;5110428;28;20047;-72
2022/07/24 07:26:50;;;;;;;14.30;5.25;;;;;;;;;;5111145;28;20024;-73
2022/07/24 07:29:16;;;;;;;7.85;4.20;;;;;;;;;;5110826;28;20030;-73
2022/07/24 07:31:42;;;;;;;11.00;4.38;;;;;;;;;;5110334;28;20020;-74
2022/07/24 07:34:08;;;;;;;11.55;4.50;;;;;;;;;;5110731;28;20102;-74
2022/07/24 07:36:35;;;;;;;13.88;5.05;;;;;;;;;;5110694;28;20429;-73
2022/07/24 07:39:01;;;;;;;9.45;4.38;;;;;;;;;;5110148;28;20062;-73
2022/07/24 07:41:27;;;;;;;10.82;5.03;;;;;;;;;;5110519;28;20020;-73
2022/07/24 07:45:24;;;;;;;10.80;4.63;;;;;;;;;;5173062;27;20619;-73
2022/07/24 07:47:50;;;;;;;13.38;4.88;;;;;;;;;;5152471;27;20423;-74
2022/07/24 07:50:16;;;;;;;10.55;5.25;;;;;;;;;;5133889;27;20051;-73
2022/07/24 07:52:43;;;;;;;10.18;5.05;;;;;;;;;;5151913;27;20029;-73
2022/07/24 07:56:05;;;;;;;9.52;4.80;;;;;;;;;;5112042;27;20396;-73
2022/07/24 07:58:31;;;;;;;10.48;5.18;;;;;;;;;;5111270;28;20477;-73
2022/07/24 08:00:57;;;;;;;16.20;5.47;;;;;;;;;;5109609;28;20376;-73
2022/07/24 08:03:23;;;;;;;8.27;4.20;;;;;;;;;;5111179;28;20021;-73
2022/07/24 08:05:50;;;;;;;9.95;4.57;;;;;;;;;;5109741;28;20024;-73
2022/07/24 08:08:16;;;;;;;9.45;4.43;;;;;;;;;;5109358;28;20028;-73
2022/07/24 08:10:42;;;;;;;9.57;5.07;;;;;;;;;;5111293;28;20020;-73
2022/07/24 08:13:11;;;;;;;11.98;4.68;;;;;;;;;;5110516;28;20080;-73
2022/07/24 08:15:37;;;;;;;10.88;5.18;;;;;;;;;;5110929;28;20383;-73
2022/07/24 08:18:03;;;;;;;9.25;5.10;;;;;;;;;;5110840;28;20016;-73
2022/07/24 08:20:29;;;;;;;7.78;4.57;;;;;;;;;;5109147;28;20027;-73
2022/07/24 08:22:55;;;;;;;9.35;4.43;;;;;;;;;;5110725;28;20052;-73
2022/07/24 08:25:22;;;;;;;8.65;5.00;;;;;;;;;;5110596;28;20055;-73
2022/07/24 08:27:48;;;;;;;12.82;4.63;;;;;;;;;;5110310;28;20035;-73
2022/07/24 08:30:14;;;;;;;8.63;4.07;;;;;;;;;;5109377;28;20495;-73
2022/07/24 08:32:40;;;;;;;9.48;4.03;;;;;;;;;;5110607;28;20104;-74
2022/07/24 08:35:07;;;;;;;8.80;4.40;;;;;;;;;;5110124;28;20487;-73
2022/07/24 08:37:40;;;;;;;11.40;4.70;;;;;;;;;;5110471;28;20026;-73
2022/07/24 08:40:07;;;;;;;12.40;4.40;;;;;;;;;;5110471;28;20028;-73
2022/07/24 08:42:33;;;;;;;7.82;4.38;;;;;;;;;;5108718;28;20024;-73
2022/07/24 08:45:00;;;;;;;9.98;4.22;;;;;;;;;;5110436;28;20023;-73
2022/07/24 08:47:26;;;;;;;10.32;4.82;;;;;;;;;;5109099;28;20376;-73
2022/07/24 08:49:54;;;;;;;9.48;5.07;;;;;;;;;;5109925;28;20061;-73
2022/07/24 08:52:22;;;;;;;7.90;3.95;;;;;;;;;;5110290;28;20031;-74
2022/07/24 08:54:48;;;;;;;8.70;3.97;;;;;;;;;;5109887;28;20504;-73
2022/07/24 08:57:14;;;;;;;12.52;5.28;;;;;;;;;;5108480;28;20387;-74
2022/07/24 08:59:40;;;;;;;11.20;3.78;;;;;;;;;;5110279;28;20024;-74
2022/07/24 09:02:06;;;;;;;10.15;4.30;;;;;;;;;;5110084;28;20068;-73
2022/07/24 09:04:37;;;;;;;9.50;3.63;;;;;;;;;;5108339;28;20421;-74
2022/07/24 09:07:05;;;;;;;10.40;4.57;;;;;;;;;;5097234;28;20395;-73
2022/07/24 09:09:31;;;;;;;13.98;4.38;;;;;;;;;;5096123;28;20337;-74
2022/07/24 09:12:04;;;;;;;8.35;4.68;;;;;;;;;;5094984;28;20115;-74
2022/07/24 09:14:31;;;;;;;9.52;4.10;;;;;;;;;;5096358;28;20028;-74
2022/07/24 09:17:08;;;;;;;11.68;4.72;;;;;;;;;;5095815;28;20035;-74
2022/07/24 09:19:53;;;;;;;14.10;5.47;;;;;;;;;;5096717;28;20024;-74
2022/07/24 09:22:37;;;;;;;9.10;4.00;;;;;;;;;;5095987;28;20043;-74
2022/07/24 09:25:17;;;;;;;9.68;4.10;;;;;;;;;;5095736;28;20108;-74
2022/07/24 09:27:48;;;;;;;7.38;4.05;;;;;;;;;;5095942;28;20039;-74
2022/07/24 09:30:28;;;;;;;7.22;3.88;;;;;;;;;;5095981;28;20020;-74
2022/07/24 09:32:55;;;;;;;11.60;4.65;;;;;;;;;;5095856;28;20051;-74
2022/07/24 09:35:40;;;;;;;6.60;3.15;;;;;;;;;;5095820;28;20507;-74
2022/07/24 09:38:08;;;;;;;10.23;4.00;;;;;;;;;;5095555;28;20024;-74
2022/07/24 09:40:38;;;;;;;7.13;3.78;;;;;;;;;;5094493;28;20480;-74
2022/07/24 09:43:21;;;;;;;9.02;3.67;;;;;;;;;;5095711;28;20069;-74
2022/07/24 09:46:08;;;;;;;6.45;3.17;;;;;;;;;;5095404;28;20027;-74
2022/07/24 09:48:35;;;;;;;9.77;3.42;;;;;;;;;;5095647;28;20051;-74
2022/07/24 09:51:04;;;;;;;8.75;3.55;;;;;;;;;;5095519;28;20031;-74
2022/07/24 09:53:31;;;;;;;8.40;3.35;;;;;;;;;;5095097;28;20024;-74
2022/07/24 09:56:08;;;;;;;7.68;3.92;;;;;;;;;;5095214;28;20044;-74
2022/07/24 09:58:35;;;;;;;6.90;3.35;;;;;;;;;;5093829;28;20021;-74
2022/07/24 10:01:02;;;;;;;8.35;3.58;;;;;;;;;;5095487;28;20027;-74
2022/07/24 10:03:32;;;;;;;10.00;3.80;;;;;;;;;;5094035;28;20030;-75
2022/07/24 10:06:00;;;;;;;7.78;3.80;;;;;;;;;;5094794;28;20032;-74
2022/07/24 10:08:26;;;;;;;9.02;3.53;;;;;;;;;;5095454;28;20024;-75
2022/07/24 10:10:53;;;;;;;9.45;3.88;;;;;;;;;;5095227;28;20102;-75
2022/07/24 10:13:19;;;;;;;9.02;3.55;;;;;;;;;;5094694;28;20073;-75
2022/07/24 10:16:14;;;;;;;5.43;3.10;;;;;;;;;;5095009;28;20052;-75
2022/07/24 10:18:50;;;;;;;5.97;3.80;;;;;;;;;;5093896;28;20020;-75
2022/07/24 10:21:20;;;;;;;6.00;3.45;;;;;;;;;;5094672;28;20031;-75
2022/07/24 10:23:57;;;;;;;8.10;3.70;;;;;;;;;;5094998;28;20103;-75
2022/07/24 10:26:33;;;;;;;6.28;3.83;;;;;;;;;;5095162;28;20050;-75
2022/07/24 10:29:07;;;;;;;7.05;4.43;;;;;;;;;;5095413;28;20106;-75
2022/07/24 10:31:34;;;;;;;8.30;4.15;;;;;;;;;;5093785;28;20111;-75
2022/07/24 10:34:03;;;;;;;8.15;3.97;;;;;;;;;;5094313;28;20423;-75
2022/07/24 10:36:31;;;;;;;7.32;3.97;;;;;;;;;;5094661;28;20032;-74
2022/07/24 10:39:00;;;;;;;6.97;4.07;;;;;;;;;;5094545;28;20027;-74
2022/07/24 10:41:26;;;;;;;8.35;3.75;;;;;;;;;;5094346;28;20024;-74
2022/07/24 10:44:11;;;;;;;6.50;3.78;;;;;;;;;;5094853;28;20053;-74
2022/07/24 10:46:55;;;;;;;9.68;4.85;;;;;;;;;;5094772;28;20478;-74
2022/07/24 10:49:34;;;;;;;8.77;4.85;;;;;;;;;;5094057;28;20380;-74
2022/07/24 10:52:00;;;;;;;6.50;3.70;;;;;;;;;;5094328;28;20099;-74
2022/07/24 10:54:26;;;;;;;8.48;3.53;;;;;;;;;;5094007;28;20079;-74
2022/07/24 10:56:52;;;;;;;8.15;4.05;;;;;;;;;;5093964;28;20447;-74
2022/07/24 10:59:32;;;;;;;9.45;3.65;;;;;;;;;;5094280;28;20055;-74
2022/07/24 11:02:18;;;;;;;6.50;3.45;;;;;;;;;;5094470;28;20452;-74
2022/07/24 11:04:44;;;;;;;7.32;3.20;;;;;;;;;;5092812;28;20020;-74
2022/07/24 11:07:12;;;;;;;6.63;3.88;;;;;;;;;;5094164;28;20484;-74
2022/07/24 11:10:00;;;;;;;8.77;3.58;;;;;;;;;;5093738;28;20024;-74
2022/07/24 11:12:30;;;;;;;7.50;3.97;;;;;;;;;;5092801;28;20032;-74
2022/07/24 11:15:54;;;;;;;7.47;3.80;;;;;;;;;;5094610;28;20353;-74
2022/07/24 11:17:50;;;;;;;7.75;3.42;;;;;;;;;;5093264;28;20069;-73
2022/07/24 11:20:17;;;;;;;6.20;4.18;;;;;;;;;;5092872;28;20490;-74
2022/07/24 11:22:43;;;;;;;8.07;3.80;;;;;;;;;;5093849;28;20032;-74
2022/07/24 11:25:14;;;;;;;7.38;3.80;;;;;;;;;;5093456;28;20376;-74
2022/07/24 11:27:51;;;;;;;6.85;3.75;;;;;;;;;;5094092;28;20107;-74
2022/07/24 11:30:18;;;;;;;6.65;4.07;;;;;;;;;;5093174;28;20027;-75
2022/07/24 11:32:44;;;;;;;7.50;3.53;;;;;;;;;;5093751;28;20441;-76
2022/07/24 11:35:10;;;;;;;8.30;3.42;;;;;;;;;;5093913;28;20036;-74
2022/07/24 11:37:37;;;;;;;6.90;3.70;;;;;;;;;;5093267;28;20500;-73
2022/07/24 11:40:05;;;;;;;7.07;3.78;;;;;;;;;;5092188;28;20028;-74
2022/07/24 11:42:31;;;;;;;9.60;5.10;;;;;;;;;;5093578;28;20024;-74
2022/07/24 11:44:58;;;;;;;9.35;5.00;;;;;;;;;;5093172;28;20024;-74
2022/07/24 11:47:26;;;;;;;12.32;4.35;;;;;;;;;;5093723;28;20050;-73
2022/07/24 11:49:59;;;;;;;7.35;3.72;;;;;;;;;;5093483;28;20480;-73
2022/07/24 11:52:27;;;;;;;9.30;4.40;;;;;;;;;;5091759;28;20074;-75
2022/07/24 11:54:55;;;;;;;6.53;3.97;;;;;;;;;;5093153;28;20123;-74
2022/07/24 11:57:22;;;;;;;7.03;4.72;;;;;;;;;;5093468;28;20103;-74
2022/07/24 11:59:49;;;;;;;8.13;4.18;;;;;;;;;;5092968;28;20030;-74
2022/07/24 12:02:15;;;;;;;7.72;4.63;;;;;;;;;;5093373;28;20441;-73
2022/07/24 12:04:42;;;;;;;7.40;4.57;;;;;;;;;;5093399;28;20025;-73
2022/07/24 12:07:16;;;;;;;7.43;4.43;;;;;;;;;;5093009;28;20414;-73
2022/07/24 12:09:45;;;;;;;6.95;3.83;;;;;;;;;;5093364;28;20023;-73
2022/07/24 12:12:42;;;;;;;8.15;4.22;;;;;;;;;;5092948;28;20020;-73
2022/07/24 12:15:13;;;;;;;8.77;4.78;;;;;;;;;;5080393;28;20105;-73
2022/07/24 12:17:57;;;;;;;8.70;4.35;;;;;;;;;;5093523;28;20107;-74
2022/07/24 12:20:27;;;;;;;6.78;4.10;;;;;;;;;;5092811;28;20069;-74
2022/07/24 12:22:53;;;;;;;6.93;3.58;;;;;;;;;;5093195;28;20016;-74
2022/07/24 12:25:20;;;;;;;6.50;4.25;;;;;;;;;;5093201;28;20059;-74
2022/07/24 12:27:52;;;;;;;7.80;4.70;;;;;;;;;;5091490;28;20024;-75
2022/07/24 12:30:18;;;;;;;10.65;5.43;;;;;;;;;;5093497;28;20077;-75
2022/07/24 12:33:14;;;;;;;11.48;5.70;;;;;;;;;;5091826;28;20074;-75
2022/07/24 12:35:59;;;;;;;9.02;4.70;;;;;;;;;;5074679;28;20082;-74
2022/07/24 12:38:37;;;;;;;8.60;5.68;;;;;;;;;;5093003;28;20028;-74
2022/07/24 12:41:06;;;;;;;8.98;4.63;;;;;;;;;;5092236;28;20020;-74
2022/07/24 12:43:33;;;;;;;8.63;5.03;;;;;;;;;;5096818;28;20024;-74
2022/07/24 12:46:10;;;;;;;9.95;5.78;;;;;;;;;;5095250;28;20024;-74
2022/07/24 12:48:36;;;;;;;9.77;5.70;;;;;;;;;;5096360;28;20065;-73
2022/07/24 12:51:10;;;;;;;9.88;4.53;;;;;;;;;;5096980;28;20058;-73
2022/07/24 12:53:37;;;;;;;9.00;4.80;;;;;;;;;;5096863;28;20043;-73
2022/07/24 12:56:14;;;;;;;10.20;4.78;;;;;;;;;;5096200;28;20059;-74
2022/07/24 12:58:53;;;;;;;7.78;4.97;;;;;;;;;;5096651;28;20074;-74
2022/07/24 13:01:21;;;;;;;8.70;5.03;;;;;;;;;;5094829;28;20388;-74
2022/07/24 13:03:51;;;;;;;9.05;4.03;;;;;;;;;;5096433;28;20032;-74
2022/07/24 13:06:17;;;;;;;6.10;4.70;;;;;;;;;;5096586;28;20024;-74
2022/07/24 13:08:43;;;;;;;10.88;4.90;;;;;;;;;;5095929;28;20061;-74
2022/07/24 13:11:09;;;;;;;7.97;4.35;;;;;;;;;;5096417;28;20419;-74
2022/07/24 13:13:35;;;;;;;8.57;4.50;;;;;;;;;;5096132;28;20488;-74
2022/07/24 13:16:02;;;;;;;8.30;4.72;;;;;;;;;;5095760;28;20064;-74
2022/07/24 13:18:29;;;;;;;9.60;5.00;;;;;;;;;;5096118;28;20468;-74
2022/07/24 13:20:55;;;;;;;6.75;4.38;;;;;;;;;;5096588;28;20028;-74
2022/07/24 13:23:21;;;;;;;8.48;4.50;;;;;;;;;;5094317;28;20473;-74
2022/07/24 13:25:47;;;;;;;7.63;4.10;;;;;;;;;;5094777;28;20025;-76
2022/07/24 13:28:13;;;;;;;7.95;4.20;;;;;;;;;;5096070;28;20047;-74
2022/07/24 13:30:40;;;;;;;7.32;4.72;;;;;;;;;;5094277;28;20028;-74
2022/07/24 13:33:06;;;;;;;8.75;5.03;;;;;;;;;;5095947;28;20407;-75
2022/07/24 13:35:32;;;;;;;8.30;4.80;;;;;;;;;;5094495;28;20042;-75
2022/07/24 13:37:59;;;;;;;7.55;4.10;;;;;;;;;;5095455;28;20021;-74
2022/07/24 13:40:25;;;;;;;8.77;4.68;;;;;;;;;;5095733;28;20476;-76
2022/07/24 13:42:51;;;;;;;6.57;4.25;;;;;;;;;;5094448;28;20380;-74
2022/07/24 13:45:17;;;;;;;7.72;4.35;;;;;;;;;;5094094;28;20547;-75
2022/07/24 13:47:44;;;;;;;6.40;4.18;;;;;;;;;;5095645;28;20031;-74
2022/07/24 13:50:10;;;;;;;8.30;4.35;;;;;;;;;;5095656;28;20028;-74
2022/07/24 13:52:36;;;;;;;8.07;4.28;;;;;;;;;;5095055;28;20012;-74
2022/07/24 13:55:02;;;;;;;9.13;5.20;;;;;;;;;;5095291;28;20150;-74
2022/07/24 13:57:28;;;;;;;8.57;4.30;;;;;;;;;;5094209;28;20384;-75
2022/07/24 13:59:54;;;;;;;7.22;4.18;;;;;;;;;;5093749;28;20432;-74
2022/07/24 14:02:20;;;;;;;12.13;4.30;;;;;;;;;;5094124;28;20035;-74
2022/07/24 14:04:47;;;;;;;7.10;4.20;;;;;;;;;;5094956;28;20020;-74
2022/07/24 14:07:13;;;;;;;9.27;5.30;;;;;;;;;;5095252;28;20020;-74
2022/07/24 14:09:40;;;;;;;8.27;4.57;;;;;;;;;;5095202;28;20057;-74
2022/07/24 14:12:06;;;;;;;8.05;4.28;;;;;;;;;;5094611;28;20544;-74
2022/07/24 14:14:32;;;;;;;8.35;4.53;;;;;;;;;;5093726;28;20476;-74
2022/07/24 14:16:58;;;;;;;7.63;4.50;;;;;;;;;;5093790;28;20111;-74
2022/07/24 14:19:25;;;;;;;7.88;5.00;;;;;;;;;;5093435;28;20027;-74
2022/07/24 14:21:51;;;;;;;6.32;4.28;;;;;;;;;;5093715;28;20388;-75
2022/07/24 14:24:20;;;;;;;7.72;4.28;;;;;;;;;;5093727;28;20032;-75
2022/07/24 14:26:46;;;;;;;7.13;4.40;;;;;;;;;;5094505;28;20051;-75
2022/07/24 14:29:13;;;;;;;6.90;4.40;;;;;;;;;;5094902;28;20024;-75
2022/07/24 14:31:39;;;;;;;7.78;4.65;;;;;;;;;;5094725;28;20027;-75
2022/07/24 14:34:05;;;;;;;8.63;4.75;;;;;;;;;;5094311;28;20028;-75
2022/07/24 14:36:31;;;;;;;6.15;4.05;;;;;;;;;;5093483;28;20103;-75
2022/07/24 14:38:58;;;;;;;6.50;4.60;;;;;;;;;;5095032;28;20023;-75
2022/07/24 14:41:24;;;;;;;6.30;4.03;;;;;;;;;;5094384;28;20475;-75
2022/07/24 14:43:50;;;;;;;7.53;4.57;;;;;;;;;;5094569;28;20107;-75
2022/07/24 14:46:17;;;;;;;6.97;4.13;;;;;;;;;;5093235;28;20392;-75
2022/07/24 14:48:43;;;;;;;7.53;4.47;;;;;;;;;;5094121;28;20027;-75
2022/07/24 14:51:09;;;;;;;8.15;4.18;;;;;;;;;;5094129;28;20103;-75
2022/07/24 14:53:35;;;;;;;8.23;4.22;;;;;;;;;;5094254;28;20499;-75
2022/07/24 14:56:01;;;;;;;8.00;4.20;;;;;;;;;;5093726;28;20052;-75
2022/07/24 14:58:27;;;;;;;6.93;4.15;;;;;;;;;;5092841;28;20182;-75
2022/07/24 15:00:55;;;;;;;7.03;4.10;;;;;;;;;;5093808;28;20103;-75
2022/07/24 15:03:21;;;;;;;7.72;4.50;;;;;;;;;;5092572;28;20024;-74
2022/07/24 15:05:47;;;;;;;8.23;4.88;;;;;;;;;;5093895;28;20020;-75
2022/07/24 15:08:13;;;;;;;5.70;3.83;;;;;;;;;;5093654;28;20031;-76
2022/07/24 15:10:41;;;;;;;7.82;4.22;;;;;;;;;;5094186;28;20065;-76
2022/07/24 15:13:07;;;;;;;8.10;4.45;;;;;;;;;;5094268;28;20028;-76
2022/07/24 15:15:33;;;;;;;9.15;4.20;;;;;;;;;;5093471;28;20032;-76
2022/07/24 15:17:59;;;;;;;7.32;4.40;;;;;;;;;;5093930;28;20024;-75
2022/07/24 15:20:25;;;;;;;7.75;4.82;;;;;;;;;;5094018;28;20039;-75
2022/07/24 15:22:52;;;;;;;6.80;4.53;;;;;;;;;;5093612;28;20150;-75
2022/07/24 15:25:18;;;;;;;7.53;4.60;;;;;;;;;;5093798;28;20024;-75
2022/07/24 15:27:45;;;;;;;6.75;4.55;;;;;;;;;;5092425;28;20020;-75
2022/07/24 15:30:15;;;;;;;12.75;5.30;;;;;;;;;;5093439;28;20020;-75
2022/07/24 15:32:42;;;;;;;6.35;4.32;;;;;;;;;;5093822;28;20020;-75
2022/07/24 15:35:08;;;;;;;6.45;4.55;;;;;;;;;;5092164;28;20030;-75
2022/07/24 15:37:34;;;;;;;10.52;5.88;;;;;;;;;;5093377;28;20389;-75
2022/07/24 15:40:00;;;;;;;8.73;5.47;;;;;;;;;;5093832;28;20438;-75
2022/07/24 15:42:27;;;;;;;10.10;5.70;;;;;;;;;;5093597;28;20063;-75
2022/07/24 15:44:54;;;;;;;7.45;4.70;;;;;;;;;;5091986;28;20103;-75
2022/07/24 15:47:20;;;;;;;9.98;5.68;;;;;;;;;;5092278;28;20028;-75
2022/07/24 15:49:46;;;;;;;8.88;5.32;;;;;;;;;;5093583;28;20016;-75
2022/07/24 15:52:12;;;;;;;8.98;5.18;;;;;;;;;;5093019;28;20032;-74
2022/07/24 15:54:38;;;;;;;10.07;4.97;;;;;;;;;;5092009;28;20048;-74